createdAt,value
2018-05-15T00:00:43.433Z,95467.63
2018-05-15T00:03:12.966Z,95474.22
2018-05-15T00:05:42.875Z,95475.39
2018-05-15T00:08:12.395Z,95471.84
2018-05-15T00:10:41.925Z,95472.63
2018-05-15T00:13:11.455Z,95467.33
2018-05-15T00:15:41.037Z,95464.21
2018-05-15T00:18:10.553Z,95458.23
2018-05-15T00:20:40.075Z,95458.95
2018-05-15T00:23:10.444Z,95444.53
2018-05-15T00:25:40.765Z,95442.03
2018-05-15T00:28:10.279Z,95436.25
2018-05-15T00:30:40.217Z,95432.03
2018-05-15T00:33:09.741Z,95430.34
2018-05-15T00:35:39.325Z,95435.85
2018-05-15T00:38:09.863Z,95433.73
2018-05-15T00:40:39.401Z,95443.03
2018-05-15T00:43:08.930Z,95446.75
2018-05-15T00:45:38.518Z,95447.84
2018-05-15T00:48:08.054Z,95445.08
2018-05-15T00:50:37.786Z,95434.17
2018-05-15T00:53:07.757Z,95424.88
2018-05-15T00:55:44.254Z,95418.69
2018-05-15T00:58:14.350Z,95422.05
2018-05-15T01:00:43.898Z,95427.48
2018-05-15T01:03:13.834Z,95439.22
2018-05-15T01:05:43.425Z,95446.26
2018-05-15T01:08:13.374Z,95453.02
2018-05-15T01:10:42.888Z,95456.66
2018-05-15T01:13:12.429Z,95449.65
2018-05-15T01:15:41.942Z,95448.88
2018-05-15T01:18:11.460Z,95443.39
2018-05-15T01:20:41.388Z,95442.77
2018-05-15T01:23:10.914Z,95431.15
2018-05-15T01:25:40.450Z,95433.42
2018-05-15T01:28:09.995Z,95431.25
2018-05-15T01:30:39.898Z,95440.98
2018-05-15T01:33:09.811Z,95436.73
2018-05-15T01:35:39.369Z,95444.11
2018-05-15T01:38:08.903Z,95443.85
2018-05-15T01:40:38.445Z,95436.88
2018-05-15T01:43:08.367Z,95437.55
2018-05-15T01:45:38.348Z,95435.46
2018-05-15T01:48:08.053Z,95430.68
2018-05-15T01:50:37.564Z,95436.08
2018-05-15T01:53:07.091Z,95433.70
2018-05-15T01:55:37.009Z,95431.02
2018-05-15T01:58:06.946Z,95434.87
2018-05-15T02:00:36.643Z,95437.25
2018-05-15T02:03:06.602Z,95442.61
2018-05-15T02:05:36.310Z,95438.75
2018-05-15T02:08:05.899Z,95440.08
2018-05-15T02:10:35.487Z,95439.58
2018-05-15T02:13:05.413Z,95439.22
2018-05-15T02:15:34.926Z,95445.06
2018-05-15T02:18:04.499Z,95454.99
2018-05-15T02:20:34.411Z,95455.91
2018-05-15T02:23:03.933Z,95457.50
2018-05-15T02:25:33.853Z,95458.38
2018-05-15T02:28:03.797Z,95458.75
2018-05-15T02:30:33.356Z,95464.37
2018-05-15T02:33:03.101Z,95454.62
2018-05-15T02:35:33.257Z,95459.19
2018-05-15T02:38:02.766Z,95457.38
2018-05-15T02:40:32.287Z,95459.08
2018-05-15T02:43:01.833Z,95455.80
2018-05-15T02:45:31.743Z,95453.71
2018-05-15T02:48:01.277Z,95456.41
2018-05-15T02:50:30.811Z,95457.71
2018-05-15T02:53:00.340Z,95453.06
2018-05-15T02:55:30.301Z,95461.08
2018-05-15T02:57:59.850Z,95465.45
2018-05-15T03:00:29.586Z,95467.38
2018-05-15T03:02:59.503Z,95463.67
2018-05-15T03:05:29.798Z,95465.63
2018-05-15T03:07:59.629Z,95459.39
2018-05-15T03:10:29.211Z,95462.41
2018-05-15T03:12:58.761Z,95455.05
2018-05-15T03:15:28.323Z,95456.55
2018-05-15T03:17:57.850Z,95462.78
2018-05-15T03:20:27.397Z,95462.05
2018-05-15T03:22:56.947Z,95455.52
2018-05-15T03:25:26.499Z,95456.33
2018-05-15T03:27:56.036Z,95451.37
2018-05-15T03:30:25.631Z,95448.09
2018-05-15T03:32:55.145Z,95454.33
2018-05-15T03:35:24.683Z,95455.10
2018-05-15T03:37:54.227Z,95459.88
2018-05-15T03:40:24.146Z,95458.55
2018-05-15T03:42:53.669Z,95458.30
2018-05-15T03:45:23.175Z,95456.60
2018-05-15T03:47:52.731Z,95458.97
2018-05-15T03:50:22.263Z,95453.13
2018-05-15T03:52:52.172Z,95460.14
2018-05-15T03:55:22.093Z,95467.90
2018-05-15T03:57:52.106Z,95465.56
2018-05-15T04:00:38.992Z,95471.27
2018-05-15T04:06:41.101Z,95482.81
2018-05-15T04:09:11.017Z,95487.59
2018-05-15T04:11:40.970Z,95485.62
2018-05-15T04:14:10.981Z,95487.91
2018-05-15T04:16:40.499Z,95487.05
2018-05-15T04:19:10.772Z,95487.38
2018-05-15T04:21:40.333Z,95489.19
2018-05-15T04:24:09.916Z,95491.52
2018-05-15T04:26:39.432Z,95489.80
2018-05-15T04:29:08.951Z,95488.23
2018-05-15T04:31:38.485Z,95491.41
2018-05-15T04:34:08.079Z,95494.35
2018-05-15T04:36:37.602Z,95498.03
2018-05-15T04:39:07.524Z,95496.03
2018-05-15T04:41:37.064Z,95504.19
2018-05-15T04:44:06.580Z,95500.88
2018-05-15T04:46:36.178Z,95503.57
2018-05-15T04:49:06.142Z,95506.47
2018-05-15T04:51:35.833Z,95511.98
2018-05-15T04:54:05.584Z,95511.14
2018-05-15T04:56:35.310Z,95510.95
2018-05-15T04:59:04.883Z,95516.26
2018-05-15T05:01:34.436Z,95517.17
2018-05-15T05:04:03.734Z,95519.98
2018-05-15T05:06:33.739Z,95522.49
2018-05-15T05:09:03.212Z,95521.36
2018-05-15T05:11:39.846Z,95526.86
2018-05-15T05:14:09.532Z,95525.27
2018-05-15T05:16:39.450Z,95530.78
2018-05-15T05:19:09.402Z,95524.85
2018-05-15T05:21:38.940Z,95531.70
2018-05-15T05:24:08.468Z,95532.03
2018-05-15T05:26:38.452Z,95532.76
2018-05-15T05:29:07.727Z,95537.19
2018-05-15T05:31:37.278Z,95539.72
2018-05-15T05:34:06.859Z,95528.37
2018-05-15T05:36:36.456Z,95532.73
2018-05-15T05:39:05.864Z,95525.66
2018-05-15T05:41:35.430Z,95518.84
2018-05-15T05:44:05.009Z,95522.58
2018-05-15T05:46:34.555Z,95526.53
2018-05-15T05:49:04.106Z,95525.63
2018-05-15T05:51:34.114Z,95526.25
2018-05-15T05:54:03.634Z,95523.38
2018-05-15T05:56:33.395Z,95522.75
2018-05-15T05:59:02.943Z,95526.13
2018-05-15T06:01:32.537Z,95529.86
2018-05-15T06:04:02.060Z,95526.64
2018-05-15T06:06:31.599Z,95524.42
2018-05-15T06:09:01.291Z,95526.98
2018-05-15T06:11:30.893Z,95526.75
2018-05-15T06:14:00.423Z,95535.10
2018-05-15T06:16:30.359Z,95542.28
2018-05-15T06:19:00.336Z,95534.66
2018-05-15T06:21:29.889Z,95554.31
2018-05-15T06:24:00.023Z,95549.35
2018-05-15T06:26:29.799Z,95548.21
2018-05-15T06:28:59.731Z,95546.79
2018-05-15T06:31:29.260Z,95540.66
2018-05-15T06:33:58.869Z,95539.45
2018-05-15T06:36:28.478Z,95535.33
2018-05-15T06:38:58.016Z,95538.39
2018-05-15T06:41:27.587Z,95539.27
2018-05-15T06:43:57.131Z,95536.23
2018-05-15T06:46:26.658Z,95528.62
2018-05-15T06:48:56.600Z,95526.79
2018-05-15T06:51:26.146Z,95528.83
2018-05-15T06:53:55.714Z,95530.78
2018-05-15T06:56:25.251Z,95531.20
2018-05-15T06:58:54.774Z,95520.70
2018-05-15T07:01:24.295Z,95527.89
2018-05-15T07:03:53.827Z,95530.86
2018-05-15T07:06:23.762Z,95535.81
2018-05-15T07:08:53.282Z,95541.94
2018-05-15T07:11:22.839Z,95541.13
2018-05-15T07:13:52.391Z,95541.28
2018-05-15T07:16:21.904Z,95544.95
2018-05-15T07:18:51.774Z,95545.81
2018-05-15T07:21:21.723Z,95547.69
2018-05-15T07:23:51.261Z,95553.55
2018-05-15T07:26:20.797Z,95558.50
2018-05-15T07:28:50.731Z,95567.19
2018-05-15T07:31:21.675Z,95562.83
2018-05-15T07:33:52.291Z,95559.43
2018-05-15T07:36:22.221Z,95564.83
2018-05-15T07:38:51.763Z,95567.80
2018-05-15T07:41:21.291Z,95566.43
2018-05-15T07:43:50.859Z,95565.52
2018-05-15T07:46:20.446Z,95568.02
2018-05-15T07:48:49.977Z,95570.84
2018-05-15T07:51:19.499Z,95566.77
2018-05-15T07:53:49.025Z,95574.27
2018-05-15T07:56:18.541Z,95578.95
2018-05-15T07:58:48.055Z,95573.13
2018-05-15T08:01:17.592Z,95577.73
2018-05-15T08:03:47.109Z,95576.09
2018-05-15T08:06:16.631Z,95576.27
2018-05-15T08:08:46.229Z,95584.05
2018-05-15T08:11:15.747Z,95580.82
2018-05-15T08:13:45.331Z,95588.98
2018-05-15T08:16:14.861Z,95580.77
2018-05-15T08:18:44.822Z,95585.30
2018-05-15T08:21:14.871Z,95582.33
2018-05-15T08:23:44.484Z,95587.93
2018-05-15T08:26:14.041Z,95589.13
2018-05-15T08:28:43.633Z,95582.88
2018-05-15T08:31:13.159Z,95576.52
2018-05-15T08:33:42.682Z,95579.70
2018-05-15T08:36:12.599Z,95591.18
2018-05-15T08:38:42.523Z,95593.67
2018-05-15T08:44:48.369Z,95602.20
2018-05-15T08:47:17.883Z,95605.97
2018-05-15T08:49:47.807Z,95604.81
2018-05-15T08:52:17.741Z,95613.86
2018-05-15T08:54:47.308Z,95613.91
2018-05-15T08:57:16.833Z,95616.99
2018-05-15T08:59:46.747Z,95610.18
2018-05-15T09:02:16.693Z,95612.05
2018-05-15T09:04:46.215Z,95609.20
2018-05-15T09:07:15.790Z,95608.96
2018-05-15T09:09:45.323Z,95601.94
2018-05-15T09:12:14.854Z,95590.58
2018-05-15T09:14:44.379Z,95591.27
2018-05-15T09:17:13.901Z,95589.06
2018-05-15T09:19:44.325Z,95588.23
2018-05-15T09:22:14.041Z,95594.30
2018-05-15T09:24:43.969Z,95598.91
2018-05-15T09:27:13.519Z,95593.46
2018-05-15T09:29:43.033Z,95602.87
2018-05-15T09:32:12.583Z,95606.90
2018-05-15T09:34:42.391Z,95615.37
2018-05-15T09:37:12.322Z,95613.13
2018-05-15T09:39:41.871Z,95604.48
2018-05-15T09:42:11.391Z,95593.98
2018-05-15T09:44:40.935Z,95595.25
2018-05-15T09:47:10.472Z,95596.95
2018-05-15T09:49:40.000Z,95602.37
2018-05-15T09:52:09.576Z,95606.34
2018-05-15T09:54:38.772Z,95611.26
2018-05-15T09:57:08.309Z,95613.91
2018-05-15T09:59:37.831Z,95620.02
2018-05-15T10:02:07.365Z,95614.36
2018-05-15T10:04:37.287Z,95614.99
2018-05-15T10:07:06.493Z,95619.12
2018-05-15T10:09:36.167Z,95622.25
2018-05-15T10:12:05.712Z,95618.41
2018-05-15T10:14:35.227Z,95617.84
2018-05-15T10:17:04.762Z,95623.85
2018-05-15T10:19:34.290Z,95628.39
2018-05-15T10:22:03.835Z,95636.27
2018-05-15T10:24:33.377Z,95656.78
2018-05-15T10:27:02.899Z,95661.88
2018-05-15T10:29:32.453Z,95656.53
2018-05-15T10:32:02.020Z,95657.34
2018-05-15T10:34:31.575Z,95648.04
2018-05-15T10:37:01.104Z,95641.78
2018-05-15T10:39:30.700Z,95621.41
2018-05-15T10:42:00.241Z,95613.43
2018-05-15T10:44:29.793Z,95603.50
2018-05-15T10:46:59.319Z,95613.78
2018-05-15T10:49:28.835Z,95622.59
2018-05-15T10:51:58.350Z,95617.73
2018-05-15T10:54:27.895Z,95621.77
2018-05-15T10:56:57.841Z,95624.08
2018-05-15T10:59:27.380Z,95620.97
2018-05-15T11:01:56.915Z,95619.25
2018-05-15T11:04:26.963Z,95624.84
2018-05-15T11:06:57.145Z,95625.66
2018-05-15T11:09:26.697Z,95621.69
2018-05-15T11:11:56.405Z,95628.82
2018-05-15T11:14:25.930Z,95626.37
2018-05-15T11:16:55.478Z,95625.47
2018-05-15T11:22:51.653Z,95630.64
2018-05-15T11:25:21.219Z,95627.16
2018-05-15T11:27:50.731Z,95621.36
2018-05-15T11:30:20.273Z,95625.34
2018-05-15T11:32:50.188Z,95620.36
2018-05-15T11:35:20.121Z,95618.07
2018-05-15T11:37:49.641Z,95613.02
2018-05-15T11:40:19.317Z,95616.66
2018-05-15T11:42:49.305Z,95614.16
2018-05-15T11:45:18.887Z,95610.90
2018-05-15T11:47:48.687Z,95609.34
2018-05-15T11:50:19.032Z,95609.84
2018-05-15T11:52:48.894Z,95605.44
2018-05-15T11:55:18.055Z,95602.97
2018-05-15T11:57:47.626Z,95596.71
2018-05-15T12:00:17.306Z,95588.45
2018-05-15T12:02:47.450Z,95586.34
2018-05-15T12:05:17.505Z,95584.60
2018-05-15T12:07:47.328Z,95583.27
2018-05-15T12:10:16.943Z,95580.76
2018-05-15T12:12:46.772Z,95562.01
2018-05-15T12:15:16.477Z,95549.06
2018-05-15T12:17:46.002Z,95552.90
2018-05-15T12:20:15.534Z,95557.63
2018-05-15T12:22:45.190Z,95568.72
2018-05-15T12:25:14.731Z,95577.95
2018-05-15T12:27:44.850Z,95587.33
2018-05-15T12:30:14.416Z,95583.58
2018-05-15T12:32:43.952Z,95579.73
2018-05-15T12:35:13.882Z,95582.50
2018-05-15T12:37:43.405Z,95579.63
2018-05-15T12:40:12.934Z,95579.23
2018-05-15T12:42:42.456Z,95581.91
2018-05-15T12:45:11.994Z,95590.48
2018-05-15T12:47:42.022Z,95591.06
2018-05-15T12:50:11.673Z,95593.95
2018-05-15T12:52:41.221Z,95592.91
2018-05-15T12:55:11.130Z,95592.92
2018-05-15T12:57:41.065Z,95593.41
2018-05-15T13:00:10.984Z,95607.53
2018-05-15T13:02:40.518Z,95609.22
2018-05-15T13:05:10.048Z,95613.79
2018-05-15T13:07:39.661Z,95620.88
2018-05-15T13:10:09.326Z,95623.77
2018-05-15T13:12:38.850Z,95622.59
2018-05-15T13:15:08.377Z,95637.62
2018-05-15T13:17:38.448Z,95653.34
2018-05-15T13:20:07.970Z,95656.97
2018-05-15T13:22:37.503Z,95656.30
2018-05-15T13:25:07.024Z,95654.02
2018-05-15T13:27:36.533Z,95655.34
2018-05-15T13:30:06.079Z,95648.27
2018-05-15T13:32:35.665Z,95647.42
2018-05-15T13:35:05.588Z,95652.67
2018-05-15T13:37:35.486Z,95660.58
2018-05-15T13:40:04.671Z,95678.11
2018-05-15T13:42:34.193Z,95683.29
2018-05-15T13:45:04.182Z,95691.37
2018-05-15T13:47:33.692Z,95685.60
2018-05-15T13:50:03.214Z,95688.94
2018-05-15T13:52:32.732Z,95681.22
2018-05-15T13:55:02.738Z,95670.32
2018-05-15T13:57:32.348Z,95663.25
2018-05-15T14:00:02.283Z,95652.69
2018-05-15T14:02:31.801Z,95654.17
2018-05-15T14:05:01.309Z,95651.81
2018-05-15T14:07:30.830Z,95656.39
2018-05-15T14:10:00.352Z,95649.80
2018-05-15T14:12:29.888Z,95655.66
2018-05-15T14:14:59.575Z,95653.73
2018-05-15T14:17:29.100Z,95657.06
2018-05-15T14:19:58.642Z,95662.34
2018-05-15T14:22:28.373Z,95656.06
2018-05-15T14:24:57.895Z,95655.86
2018-05-15T14:27:27.429Z,95659.17
2018-05-15T14:29:56.952Z,95658.09
2018-05-15T14:32:26.906Z,95662.68
2018-05-15T14:34:56.991Z,95659.21
2018-05-15T14:37:26.920Z,95655.77
2018-05-15T14:39:56.544Z,95644.72
2018-05-15T14:42:43.024Z,95634.56
2018-05-15T14:45:17.754Z,95623.53
2018-05-15T14:47:47.662Z,95621.86
2018-05-15T14:50:17.620Z,95617.23
2018-05-15T14:52:47.190Z,95633.87
2018-05-15T14:55:17.133Z,95630.83
2018-05-15T14:57:46.656Z,95635.61
2018-05-15T15:00:16.188Z,95643.95
2018-05-15T15:02:45.724Z,95639.81
2018-05-15T15:05:15.652Z,95648.81
2018-05-15T15:07:45.257Z,95642.81
2018-05-15T15:10:14.824Z,95642.75
2018-05-15T15:12:44.375Z,95637.75
2018-05-15T15:15:13.946Z,95650.76
2018-05-15T15:17:43.472Z,95649.80
2018-05-15T15:20:13.399Z,95651.19
2018-05-15T15:22:42.934Z,95653.31
2018-05-15T15:25:12.607Z,95652.36
2018-05-15T15:27:42.519Z,95650.08
2018-05-15T15:30:12.638Z,95655.73
2018-05-15T15:32:42.572Z,95649.83
2018-05-15T15:35:12.183Z,95651.51
2018-05-15T15:37:41.854Z,95649.34
2018-05-15T15:40:11.414Z,95644.75
2018-05-15T15:42:40.971Z,95640.16
2018-05-15T15:45:10.539Z,95642.78
2018-05-15T15:47:40.066Z,95641.14
2018-05-15T15:50:09.598Z,95641.66
2018-05-15T15:52:39.512Z,95644.27
2018-05-15T15:55:09.456Z,95645.59
2018-05-15T15:57:38.977Z,95647.97
2018-05-15T16:00:08.576Z,95654.61
2018-05-15T16:02:37.888Z,95648.23
2018-05-15T16:05:07.486Z,95649.91
2018-05-15T16:07:36.999Z,95648.27
2018-05-15T16:10:06.566Z,95648.84
2018-05-15T16:12:36.259Z,95649.83
2018-05-15T16:15:05.471Z,95644.62
2018-05-15T16:17:35.408Z,95644.12
2018-05-15T16:20:04.622Z,95641.48
2018-05-15T16:22:34.168Z,95631.12
2018-05-15T16:25:03.464Z,95634.59
2018-05-15T16:27:33.030Z,95633.84
2018-05-15T16:30:02.646Z,95647.51
2018-05-15T16:32:32.160Z,95664.39
2018-05-15T16:35:01.707Z,95684.78
2018-05-15T16:37:31.557Z,95705.61
2018-05-15T16:40:02.048Z,95699.36
2018-05-15T16:42:32.027Z,95709.45
2018-05-15T16:45:01.624Z,95716.66
2018-05-15T16:47:31.223Z,95721.23
2018-05-15T16:50:00.915Z,95716.80
2018-05-15T16:52:30.820Z,95718.63
2018-05-15T16:55:00.759Z,95724.73
2018-05-15T16:57:30.492Z,95725.27
2018-05-15T17:00:00.495Z,95720.58
2018-05-15T17:02:30.017Z,95722.66
2018-05-15T17:04:59.530Z,95731.83
2018-05-15T17:07:29.824Z,95737.70
2018-05-15T17:09:59.336Z,95741.08
2018-05-15T17:12:28.900Z,95736.15
2018-05-15T17:14:58.426Z,95732.33
2018-05-15T17:17:28.355Z,95731.29
2018-05-15T17:19:57.877Z,95732.00
2018-05-15T17:22:27.418Z,95742.48
2018-05-15T17:24:56.937Z,95746.30
2018-05-15T17:27:26.454Z,95750.75
2018-05-15T17:29:55.981Z,95747.27
2018-05-15T17:32:25.886Z,95755.58
2018-05-15T17:34:55.651Z,95750.62
2018-05-15T17:37:25.202Z,95760.59
2018-05-15T17:39:55.158Z,95775.75
2018-05-15T17:42:24.708Z,95785.63
2018-05-15T17:44:54.224Z,95804.02
2018-05-15T17:47:24.161Z,95816.83
2018-05-15T17:49:54.278Z,95827.62
2018-05-15T17:52:24.199Z,95829.98
2018-05-15T17:54:53.736Z,95830.20
2018-05-15T17:57:23.461Z,95844.81
2018-05-15T17:59:53.066Z,95841.55
2018-05-15T18:02:22.755Z,95845.61
2018-05-15T18:04:52.489Z,95837.16
2018-05-15T18:07:22.017Z,95838.22
2018-05-15T18:09:51.610Z,95835.52
2018-05-15T18:12:21.323Z,95837.69
2018-05-15T18:14:51.583Z,95834.98
2018-05-15T18:17:21.653Z,95836.98
2018-05-15T18:19:51.175Z,95840.27
2018-05-15T18:22:20.698Z,95842.56
2018-05-15T18:24:50.660Z,95834.37
2018-05-15T18:27:20.174Z,95827.48
2018-05-15T18:29:49.689Z,95826.72
2018-05-15T18:32:19.225Z,95819.98
2018-05-15T18:34:48.776Z,95821.48
2018-05-15T18:37:18.390Z,95813.70
2018-05-15T18:39:47.966Z,95808.42
2018-05-15T18:42:17.872Z,95804.78
2018-05-15T18:44:47.843Z,95784.97
2018-05-15T18:47:17.412Z,95778.03
2018-05-15T18:49:47.344Z,95769.52
2018-05-15T18:52:16.902Z,95767.79
2018-05-15T18:54:46.447Z,95765.50
2018-05-15T18:57:15.967Z,95759.64
2018-05-15T18:59:45.536Z,95752.79
2018-05-15T19:02:15.498Z,95756.91
2018-05-15T19:04:45.039Z,95768.38
2018-05-15T19:07:14.564Z,95773.83
2018-05-15T19:09:44.100Z,95772.05
2018-05-15T19:12:13.876Z,95767.20
2018-05-15T19:14:43.511Z,95768.05
2018-05-15T19:17:13.180Z,95774.06
2018-05-15T19:19:43.136Z,95778.53
2018-05-15T19:22:12.728Z,95788.27
2018-05-15T19:24:42.685Z,95805.58
2018-05-15T19:27:12.258Z,95805.17
2018-05-15T19:29:42.404Z,95821.92
2018-05-15T19:32:17.662Z,95825.61
2018-05-15T19:34:52.561Z,95828.94
2018-05-15T19:37:22.475Z,95833.19
2018-05-15T19:39:52.167Z,95832.04
2018-05-15T19:42:21.716Z,95841.77
2018-05-15T19:44:51.279Z,95844.83
2018-05-15T19:47:20.991Z,95842.25
2018-05-15T19:49:50.910Z,95842.08
2018-05-15T19:52:20.849Z,95840.13
2018-05-15T19:54:50.435Z,95845.34
2018-05-15T19:57:20.403Z,95855.28
2018-05-15T19:59:49.914Z,95864.13
2018-05-15T20:02:19.451Z,95861.31
2018-05-15T20:04:49.037Z,95861.52
2018-05-15T20:07:18.658Z,95858.03
2018-05-15T20:09:48.339Z,95857.63
2018-05-15T20:12:17.878Z,95856.64
2018-05-15T20:14:47.409Z,95860.34
2018-05-15T20:17:17.389Z,95856.09
2018-05-15T20:19:46.885Z,95855.00
2018-05-15T20:22:16.416Z,95858.30
2018-05-15T20:24:46.273Z,95848.36
2018-05-15T20:27:15.822Z,95846.41
2018-05-15T20:29:46.036Z,95842.92
2018-05-15T20:32:15.566Z,95843.69
2018-05-15T20:34:45.898Z,95852.50
2018-05-15T20:37:15.385Z,95851.69
2018-05-15T20:39:45.011Z,95856.00
2018-05-15T20:42:14.603Z,95859.66
2018-05-15T20:44:44.326Z,95864.28
2018-05-15T20:47:14.282Z,95863.28
2018-05-15T20:49:43.807Z,95868.51
2018-05-15T20:52:13.395Z,95865.77
2018-05-15T20:54:43.125Z,95870.64
2018-05-15T20:57:12.670Z,95873.03
2018-05-15T20:59:42.201Z,95879.59
2018-05-15T21:02:12.217Z,95876.33
2018-05-15T21:04:41.749Z,95875.92
2018-05-15T21:07:11.328Z,95882.72
2018-05-15T21:09:41.319Z,95892.86
2018-05-15T21:12:11.163Z,95895.77
2018-05-15T21:14:40.754Z,95906.08
2018-05-15T21:17:11.015Z,95902.70
2018-05-15T21:19:40.571Z,95897.05
2018-05-15T21:22:10.125Z,95896.45
2018-05-15T21:24:40.619Z,95893.81
2018-05-15T21:27:10.589Z,95887.63
2018-05-15T21:29:40.170Z,95886.26
2018-05-15T21:32:09.711Z,95896.78
2018-05-15T21:34:39.283Z,95898.98
2018-05-15T21:37:08.811Z,95900.49
2018-05-15T21:39:38.358Z,95899.31
2018-05-15T21:42:07.899Z,95894.81
2018-05-15T21:44:37.432Z,95896.37
2018-05-15T21:47:06.949Z,95892.87
2018-05-15T21:49:36.486Z,95896.70
2018-05-15T21:52:06.232Z,95907.59
2018-05-15T21:54:35.811Z,95898.86
2018-05-15T21:57:05.734Z,95899.60
2018-05-15T21:59:35.664Z,95905.65
2018-05-15T22:02:05.577Z,95911.47
2018-05-15T22:04:35.543Z,95912.44
2018-05-15T22:07:05.189Z,95905.84
2018-05-15T22:09:35.147Z,95905.66
2018-05-15T22:12:21.428Z,95915.64
2018-05-15T22:15:07.968Z,95912.92
2018-05-15T22:17:54.389Z,95907.70
2018-05-15T22:20:40.598Z,95905.74
2018-05-15T22:23:08.571Z,95907.29
2018-05-15T22:25:38.101Z,95903.03
2018-05-15T22:28:07.756Z,95901.13
2018-05-15T22:30:37.303Z,95897.45
2018-05-15T22:33:07.231Z,95898.83
2018-05-15T22:35:36.838Z,95889.09
2018-05-15T22:38:06.432Z,95886.62
2018-05-15T22:40:36.405Z,95882.15
2018-05-15T22:43:06.125Z,95881.37
2018-05-15T22:45:35.695Z,95884.28
2018-05-15T22:48:05.290Z,95878.44
2018-05-15T22:50:34.817Z,95874.96
2018-05-15T22:53:04.343Z,95870.45
2018-05-15T22:55:33.867Z,95868.90
2018-05-15T22:58:03.408Z,95869.08
2018-05-15T23:00:33.370Z,95868.66
2018-05-15T23:03:02.892Z,95863.63
2018-05-15T23:05:32.421Z,95858.73
2018-05-15T23:08:02.382Z,95857.36
2018-05-15T23:10:31.996Z,95855.81
2018-05-15T23:13:01.744Z,95861.44
2018-05-15T23:15:31.288Z,95868.91
2018-05-15T23:18:00.813Z,95862.44
2018-05-15T23:20:30.328Z,95867.33
2018-05-15T23:22:59.865Z,95867.88
2018-05-15T23:25:29.142Z,95856.39
2018-05-15T23:27:58.664Z,95857.55
2018-05-15T23:30:28.196Z,95855.37
2018-05-15T23:32:58.138Z,95855.95
2018-05-15T23:35:27.656Z,95856.14
2018-05-15T23:37:57.224Z,95858.49
2018-05-15T23:40:27.132Z,95860.23
2018-05-15T23:42:56.664Z,95858.52
2018-05-15T23:45:26.206Z,95853.50
2018-05-15T23:47:55.730Z,95854.48
2018-05-15T23:50:25.273Z,95847.66
2018-05-15T23:52:55.445Z,95847.45
2018-05-15T23:55:24.968Z,95847.66
2018-05-15T23:57:54.546Z,95847.47
